sensor_id;sensor_type;location;lat;lon;timestamp;P1;durP1;ratioP1;P2;durP2;ratioP2
39410;SDS011;26579;43.238;23.124;2023-03-13T00:01:53;12.02;;;6.20;;
39410;SDS011;26579;43.238;23.124;2023-03-13T00:04:19;11.30;;;6.18;;
39410;SDS011;26579;43.238;23.124;2023-03-13T00:06:45;13.60;;;7.35;;
39410;SDS011;26579;43.238;23.124;2023-03-13T00:09:11;13.80;;;7.22;;
39410;SDS011;26579;43.238;23.124;2023-03-13T00:11:39;19.15;;;8.82;;
39410;SDS011;26579;43.238;23.124;2023-03-13T00:14:05;20.15;;;8.18;;
39410;SDS011;26579;43.238;23.124;2023-03-13T00:16:32;13.07;;;7.50;;
39410;SDS011;26579;43.238;23.124;2023-03-13T00:18:57;17.35;;;8.77;;
39410;SDS011;26579;43.238;23.124;2023-03-13T00:21:24;14.00;;;7.00;;
39410;SDS011;26579;43.238;23.124;2023-03-13T00:23:51;14.30;;;7.82;;
39410;SDS011;26579;43.238;23.124;2023-03-13T00:26:18;16.48;;;7.72;;
39410;SDS011;26579;43.238;23.124;2023-03-13T00:28:46;15.38;;;6.95;;
39410;SDS011;26579;43.238;23.124;2023-03-13T00:31:13;13.10;;;6.85;;
39410;SDS011;26579;43.238;23.124;2023-03-13T00:33:45;10.63;;;6.03;;
39410;SDS011;26579;43.238;23.124;2023-03-13T00:36:17;12.73;;;5.95;;
39410;SDS011;26579;43.238;23.124;2023-03-13T00:38:48;11.13;;;5.70;;
39410;SDS011;26579;43.238;23.124;2023-03-13T00:41:16;9.75;;;4.97;;
39410;SDS011;26579;43.238;23.124;2023-03-13T00:43:43;12.30;;;7.28;;
39410;SDS011;26579;43.238;23.124;2023-03-13T00:46:10;10.00;;;5.13;;
39410;SDS011;26579;43.238;23.124;2023-03-13T00:48:37;11.43;;;5.65;;
39410;SDS011;26579;43.238;23.124;2023-03-13T00:51:03;11.90;;;5.82;;
39410;SDS011;26579;43.238;23.124;2023-03-13T00:53:30;9.25;;;5.35;;
39410;SDS011;26579;43.238;23.124;2023-03-13T00:55:57;12.38;;;6.15;;
39410;SDS011;26579;43.238;23.124;2023-03-13T00:58:26;14.68;;;6.50;;
39410;SDS011;26579;43.238;23.124;2023-03-13T01:00:53;11.27;;;5.72;;
39410;SDS011;26579;43.238;23.124;2023-03-13T01:03:20;13.48;;;6.28;;
39410;SDS011;26579;43.238;23.124;2023-03-13T01:05:57;10.77;;;5.50;;
39410;SDS011;26579;43.238;23.124;2023-03-13T01:08:24;10.68;;;5.22;;
39410;SDS011;26579;43.238;23.124;2023-03-13T01:10:56;9.32;;;4.40;;
39410;SDS011;26579;43.238;23.124;2023-03-13T01:13:36;13.68;;;5.80;;
39410;SDS011;26579;43.238;23.124;2023-03-13T01:16:03;17.77;;;7.18;;
39410;SDS011;26579;43.238;23.124;2023-03-13T01:18:29;13.32;;;6.22;;
39410;SDS011;26579;43.238;23.124;2023-03-13T01:20:55;16.63;;;6.30;;
39410;SDS011;26579;43.238;23.124;2023-03-13T01:23:20;13.95;;;6.20;;
39410;SDS011;26579;43.238;23.124;2023-03-13T01:25:46;15.00;;;6.05;;
39410;SDS011;26579;43.238;23.124;2023-03-13T01:28:12;14.80;;;6.72;;
39410;SDS011;26579;43.238;23.124;2023-03-13T01:30:38;12.52;;;6.85;;
39410;SDS011;26579;43.238;23.124;2023-03-13T01:33:04;13.02;;;6.15;;
39410;SDS011;26579;43.238;23.124;2023-03-13T01:35:30;12.35;;;5.82;;
39410;SDS011;26579;43.238;23.124;2023-03-13T01:37:57;11.48;;;4.93;;
39410;SDS011;26579;43.238;23.124;2023-03-13T01:40:23;10.38;;;5.25;;
39410;SDS011;26579;43.238;23.124;2023-03-13T01:42:53;8.75;;;4.30;;
39410;SDS011;26579;43.238;23.124;2023-03-13T01:51:15;8.75;;;4.70;;
39410;SDS011;26579;43.238;23.124;2023-03-13T01:53:46;9.30;;;4.55;;
39410;SDS011;26579;43.238;23.124;2023-03-13T01:56:18;9.02;;;4.57;;
39410;SDS011;26579;43.238;23.124;2023-03-13T01:58:47;14.07;;;5.00;;
39410;SDS011;26579;43.238;23.124;2023-03-13T02:01:15;15.70;;;6.28;;
39410;SDS011;26579;43.238;23.124;2023-03-13T02:03:43;15.88;;;5.28;;
39410;SDS011;26579;43.238;23.124;2023-03-13T02:06:10;11.50;;;5.45;;
39410;SDS011;26579;43.238;23.124;2023-03-13T02:08:37;11.10;;;5.55;;
39410;SDS011;26579;43.238;23.124;2023-03-13T02:14:10;9.23;;;4.68;;
39410;SDS011;26579;43.238;23.124;2023-03-13T02:16:37;8.65;;;4.93;;
39410;SDS011;26579;43.238;23.124;2023-03-13T02:19:07;11.88;;;5.00;;
39410;SDS011;26579;43.238;23.124;2023-03-13T02:25:09;9.48;;;5.28;;
39410;SDS011;26579;43.238;23.124;2023-03-13T02:27:37;10.02;;;4.68;;
39410;SDS011;26579;43.238;23.124;2023-03-13T02:30:03;8.00;;;4.40;;
39410;SDS011;26579;43.238;23.124;2023-03-13T02:32:31;8.32;;;4.50;;
39410;SDS011;26579;43.238;23.124;2023-03-13T02:34:58;8.18;;;4.15;;
39410;SDS011;26579;43.238;23.124;2023-03-13T02:37:29;7.57;;;4.32;;
39410;SDS011;26579;43.238;23.124;2023-03-13T02:39:57;10.52;;;5.05;;
39410;SDS011;26579;43.238;23.124;2023-03-13T02:42:25;8.57;;;4.43;;
39410;SDS011;26579;43.238;23.124;2023-03-13T02:44:53;10.35;;;5.13;;
39410;SDS011;26579;43.238;23.124;2023-03-13T02:47:19;9.85;;;4.85;;
39410;SDS011;26579;43.238;23.124;2023-03-13T02:49:46;12.63;;;5.28;;
39410;SDS011;26579;43.238;23.124;2023-03-13T02:52:16;12.27;;;5.80;;
39410;SDS011;26579;43.238;23.124;2023-03-13T02:54:51;11.23;;;5.47;;
39410;SDS011;26579;43.238;23.124;2023-03-13T02:57:22;15.98;;;7.43;;
39410;SDS011;26579;43.238;23.124;2023-03-13T02:59:48;11.38;;;5.90;;
39410;SDS011;26579;43.238;23.124;2023-03-13T03:02:14;14.48;;;6.50;;
39410;SDS011;26579;43.238;23.124;2023-03-13T03:04:39;13.55;;;6.60;;
39410;SDS011;26579;43.238;23.124;2023-03-13T03:07:05;8.63;;;4.60;;
39410;SDS011;26579;43.238;23.124;2023-03-13T03:09:31;7.82;;;4.38;;
39410;SDS011;26579;43.238;23.124;2023-03-13T03:12:02;8.02;;;4.50;;
39410;SDS011;26579;43.238;23.124;2023-03-13T03:14:28;11.65;;;5.90;;
39410;SDS011;26579;43.238;23.124;2023-03-13T03:16:54;7.47;;;3.95;;
39410;SDS011;26579;43.238;23.124;2023-03-13T03:19:20;8.20;;;3.95;;
39410;SDS011;26579;43.238;23.124;2023-03-13T03:21:46;8.35;;;4.07;;
39410;SDS011;26579;43.238;23.124;2023-03-13T03:24:12;9.27;;;4.15;;
39410;SDS011;26579;43.238;23.124;2023-03-13T03:26:37;8.18;;;4.55;;
39410;SDS011;26579;43.238;23.124;2023-03-13T03:29:09;9.77;;;4.70;;
39410;SDS011;26579;43.238;23.124;2023-03-13T03:31:36;13.07;;;5.75;;
39410;SDS011;26579;43.238;23.124;2023-03-13T03:34:01;14.95;;;5.82;;
39410;SDS011;26579;43.238;23.124;2023-03-13T03:36:28;10.10;;;5.13;;
39410;SDS011;26579;43.238;23.124;2023-03-13T03:38:54;11.63;;;5.18;;
39410;SDS011;26579;43.238;23.124;2023-03-13T03:41:23;10.80;;;5.65;;
39410;SDS011;26579;43.238;23.124;2023-03-13T03:43:49;10.55;;;5.03;;
39410;SDS011;26579;43.238;23.124;2023-03-13T03:46:19;11.10;;;5.55;;
39410;SDS011;26579;43.238;23.124;2023-03-13T03:48:45;9.93;;;4.45;;
39410;SDS011;26579;43.238;23.124;2023-03-13T03:51:11;9.95;;;4.95;;
39410;SDS011;26579;43.238;23.124;2023-03-13T03:53:40;6.45;;;3.80;;
39410;SDS011;26579;43.238;23.124;2023-03-13T03:56:06;8.30;;;4.45;;
39410;SDS011;26579;43.238;23.124;2023-03-13T03:58:34;8.48;;;4.40;;
39410;SDS011;26579;43.238;23.124;2023-03-13T04:01:12;11.10;;;5.28;;
39410;SDS011;26579;43.238;23.124;2023-03-13T04:03:37;9.52;;;4.78;;
39410;SDS011;26579;43.238;23.124;2023-03-13T04:06:03;9.23;;;5.00;;
39410;SDS011;26579;43.238;23.124;2023-03-13T04:08:29;16.40;;;7.43;;
39410;SDS011;26579;43.238;23.124;2023-03-13T04:10:56;19.50;;;8.77;;
39410;SDS011;26579;43.238;23.124;2023-03-13T04:13:22;21.92;;;9.15;;
39410;SDS011;26579;43.238;23.124;2023-03-13T04:15:49;21.58;;;8.90;;
39410;SDS011;26579;43.238;23.124;2023-03-13T04:18:16;23.85;;;9.98;;
39410;SDS011;26579;43.238;23.124;2023-03-13T04:20:42;19.65;;;9.00;;
39410;SDS011;26579;43.238;23.124;2023-03-13T04:23:08;22.70;;;9.60;;
39410;SDS011;26579;43.238;23.124;2023-03-13T04:25:34;25.60;;;10.07;;
39410;SDS011;26579;43.238;23.124;2023-03-13T04:28:00;24.92;;;9.88;;
39410;SDS011;26579;43.238;23.124;2023-03-13T04:30:33;21.70;;;8.80;;
39410;SDS011;26579;43.238;23.124;2023-03-13T04:33:24;21.27;;;8.70;;
39410;SDS011;26579;43.238;23.124;2023-03-13T04:36:13;14.77;;;7.15;;
39410;SDS011;26579;43.238;23.124;2023-03-13T04:38:55;15.90;;;7.53;;
39410;SDS011;26579;43.238;23.124;2023-03-13T04:41:47;13.10;;;7.93;;
39410;SDS011;26579;43.238;23.124;2023-03-13T04:44:33;15.38;;;7.38;;
39410;SDS011;26579;43.238;23.124;2023-03-13T04:47:11;15.52;;;7.97;;
39410;SDS011;26579;43.238;23.124;2023-03-13T04:50:03;74.85;;;28.05;;
39410;SDS011;26579;43.238;23.124;2023-03-13T04:52:46;119.68;;;42.00;;
39410;SDS011;26579;43.238;23.124;2023-03-13T04:55:32;51.58;;;25.77;;
39410;SDS011;26579;43.238;23.124;2023-03-13T04:58:05;31.75;;;15.00;;
39410;SDS011;26579;43.238;23.124;2023-03-13T05:00:43;32.08;;;14.68;;
39410;SDS011;26579;43.238;23.124;2023-03-13T05:03:28;26.55;;;12.35;;
39410;SDS011;26579;43.238;23.124;2023-03-13T05:06:06;27.13;;;13.07;;
39410;SDS011;26579;43.238;23.124;2023-03-13T05:08:38;26.98;;;12.35;;
39410;SDS011;26579;43.238;23.124;2023-03-13T05:11:24;47.42;;;18.58;;
39410;SDS011;26579;43.238;23.124;2023-03-13T05:14:14;56.63;;;21.90;;
39410;SDS011;26579;43.238;23.124;2023-03-13T05:16:53;62.70;;;24.45;;
39410;SDS011;26579;43.238;23.124;2023-03-13T05:19:45;80.03;;;25.98;;
39410;SDS011;26579;43.238;23.124;2023-03-13T05:22:20;44.60;;;18.30;;
39410;SDS011;26579;43.238;23.124;2023-03-13T05:25:23;46.65;;;19.77;;
39410;SDS011;26579;43.238;23.124;2023-03-13T05:28:08;43.95;;;19.38;;
39410;SDS011;26579;43.238;23.124;2023-03-13T05:30:56;54.15;;;19.92;;
39410;SDS011;26579;43.238;23.124;2023-03-13T05:33:40;32.83;;;14.32;;
39410;SDS011;26579;43.238;23.124;2023-03-13T05:36:21;36.50;;;14.98;;
39410;SDS011;26579;43.238;23.124;2023-03-13T05:39:07;35.50;;;14.95;;
39410;SDS011;26579;43.238;23.124;2023-03-13T05:41:52;29.70;;;13.05;;
39410;SDS011;26579;43.238;23.124;2023-03-13T05:44:36;17.97;;;9.70;;
39410;SDS011;26579;43.238;23.124;2023-03-13T05:47:25;21.73;;;9.48;;
39410;SDS011;26579;43.238;23.124;2023-03-13T05:50:11;25.15;;;11.52;;
39410;SDS011;26579;43.238;23.124;2023-03-13T05:52:57;26.58;;;14.35;;
39410;SDS011;26579;43.238;23.124;2023-03-13T05:55:39;34.63;;;17.63;;
39410;SDS011;26579;43.238;23.124;2023-03-13T05:58:18;38.47;;;21.05;;
39410;SDS011;26579;43.238;23.124;2023-03-13T06:01:07;43.17;;;22.27;;
39410;SDS011;26579;43.238;23.124;2023-03-13T06:03:45;28.35;;;16.23;;
39410;SDS011;26579;43.238;23.124;2023-03-13T06:06:13;26.65;;;13.18;;
39410;SDS011;26579;43.238;23.124;2023-03-13T06:08:51;31.70;;;15.10;;
39410;SDS011;26579;43.238;23.124;2023-03-13T06:11:17;28.63;;;13.45;;
39410;SDS011;26579;43.238;23.124;2023-03-13T06:13:43;25.58;;;12.55;;
39410;SDS011;26579;43.238;23.124;2023-03-13T06:16:18;20.20;;;10.55;;
39410;SDS011;26579;43.238;23.124;2023-03-13T06:18:46;17.27;;;9.85;;
39410;SDS011;26579;43.238;23.124;2023-03-13T06:21:12;15.77;;;9.30;;
39410;SDS011;26579;43.238;23.124;2023-03-13T06:23:38;13.55;;;9.02;;
39410;SDS011;26579;43.238;23.124;2023-03-13T06:26:03;14.35;;;7.72;;
39410;SDS011;26579;43.238;23.124;2023-03-13T06:28:29;14.15;;;7.88;;
39410;SDS011;26579;43.238;23.124;2023-03-13T06:30:59;11.70;;;7.10;;
39410;SDS011;26579;43.238;23.124;2023-03-13T06:33:25;24.05;;;11.68;;
39410;SDS011;26579;43.238;23.124;2023-03-13T06:35:51;18.55;;;10.05;;
39410;SDS011;26579;43.238;23.124;2023-03-13T06:38:17;17.35;;;10.15;;
39410;SDS011;26579;43.238;23.124;2023-03-13T06:40:42;18.17;;;10.88;;
39410;SDS011;26579;43.238;23.124;2023-03-13T06:43:08;19.73;;;12.70;;
39410;SDS011;26579;43.238;23.124;2023-03-13T06:45:34;19.52;;;12.80;;
39410;SDS011;26579;43.238;23.124;2023-03-13T06:48:01;23.55;;;14.60;;
39410;SDS011;26579;43.238;23.124;2023-03-13T06:50:27;9.77;;;6.60;;
39410;SDS011;26579;43.238;23.124;2023-03-13T06:52:56;9.68;;;7.32;;
39410;SDS011;26579;43.238;23.124;2023-03-13T06:55:22;11.52;;;7.05;;
39410;SDS011;26579;43.238;23.124;2023-03-13T06:57:51;6.93;;;5.53;;
39410;SDS011;26579;43.238;23.124;2023-03-13T07:00:17;8.35;;;5.50;;
39410;SDS011;26579;43.238;23.124;2023-03-13T07:02:44;9.15;;;6.47;;
39410;SDS011;26579;43.238;23.124;2023-03-13T07:05:09;9.77;;;6.57;;
39410;SDS011;26579;43.238;23.124;2023-03-13T07:07:35;10.55;;;7.00;;
39410;SDS011;26579;43.238;23.124;2023-03-13T07:10:01;10.75;;;6.65;;
39410;SDS011;26579;43.238;23.124;2023-03-13T07:12:27;7.93;;;5.20;;
39410;SDS011;26579;43.238;23.124;2023-03-13T07:14:53;10.02;;;6.13;;
39410;SDS011;26579;43.238;23.124;2023-03-13T07:17:18;11.68;;;6.93;;
39410;SDS011;26579;43.238;23.124;2023-03-13T07:19:44;16.90;;;10.88;;
39410;SDS011;26579;43.238;23.124;2023-03-13T07:22:10;13.38;;;7.90;;
39410;SDS011;26579;43.238;23.124;2023-03-13T07:24:35;14.98;;;9.13;;
39410;SDS011;26579;43.238;23.124;2023-03-13T07:27:01;14.52;;;9.23;;
39410;SDS011;26579;43.238;23.124;2023-03-13T07:29:27;11.75;;;6.53;;
39410;SDS011;26579;43.238;23.124;2023-03-13T07:31:52;10.68;;;5.70;;
39410;SDS011;26579;43.238;23.124;2023-03-13T07:34:18;8.77;;;5.65;;
39410;SDS011;26579;43.238;23.124;2023-03-13T07:36:44;7.85;;;5.45;;
39410;SDS011;26579;43.238;23.124;2023-03-13T07:39:09;8.10;;;5.25;;
39410;SDS011;26579;43.238;23.124;2023-03-13T07:41:35;12.05;;;5.05;;
39410;SDS011;26579;43.238;23.124;2023-03-13T07:44:01;10.15;;;7.57;;
39410;SDS011;26579;43.238;23.124;2023-03-13T07:46:26;45.17;;;26.15;;
39410;SDS011;26579;43.238;23.124;2023-03-13T07:48:52;15.50;;;9.38;;
39410;SDS011;26579;43.238;23.124;2023-03-13T07:51:22;10.98;;;7.40;;
39410;SDS011;26579;43.238;23.124;2023-03-13T07:53:49;8.93;;;5.38;;
39410;SDS011;26579;43.238;23.124;2023-03-13T07:56:19;7.88;;;5.20;;
39410;SDS011;26579;43.238;23.124;2023-03-13T07:58:46;9.43;;;6.35;;
39410;SDS011;26579;43.238;23.124;2023-03-13T08:03:48;8.45;;;5.68;;
39410;SDS011;26579;43.238;23.124;2023-03-13T08:06:15;13.32;;;7.10;;
39410;SDS011;26579;43.238;23.124;2023-03-13T08:08:43;12.30;;;7.60;;
39410;SDS011;26579;43.238;23.124;2023-03-13T08:11:10;14.77;;;6.47;;
39410;SDS011;26579;43.238;23.124;2023-03-13T08:13:37;6.47;;;4.97;;
39410;SDS011;26579;43.238;23.124;2023-03-13T08:16:07;8.82;;;5.10;;
39410;SDS011;26579;43.238;23.124;2023-03-13T08:18:35;9.52;;;4.95;;
39410;SDS011;26579;43.238;23.124;2023-03-13T08:21:03;8.23;;;4.88;;
39410;SDS011;26579;43.238;23.124;2023-03-13T08:23:31;13.48;;;9.70;;
39410;SDS011;26579;43.238;23.124;2023-03-13T08:26:16;13.23;;;8.65;;
39410;SDS011;26579;43.238;23.124;2023-03-13T08:28:44;8.52;;;5.78;;
39410;SDS011;26579;43.238;23.124;2023-03-13T08:31:15;5.93;;;4.18;;
39410;SDS011;26579;43.238;23.124;2023-03-13T08:33:44;7.60;;;5.05;;
39410;SDS011;26579;43.238;23.124;2023-03-13T08:36:12;7.80;;;5.90;;
39410;SDS011;26579;43.238;23.124;2023-03-13T08:38:38;7.00;;;4.65;;
39410;SDS011;26579;43.238;23.124;2023-03-13T08:41:04;9.48;;;4.88;;
39410;SDS011;26579;43.238;23.124;2023-03-13T08:43:30;10.85;;;7.88;;
39410;SDS011;26579;43.238;23.124;2023-03-13T08:45:55;6.68;;;5.18;;
39410;SDS011;26579;43.238;23.124;2023-03-13T08:48:21;11.80;;;7.53;;
39410;SDS011;26579;43.238;23.124;2023-03-13T08:50:47;8.77;;;6.22;;
39410;SDS011;26579;43.238;23.124;2023-03-13T08:53:22;7.20;;;4.53;;
39410;SDS011;26579;43.238;23.124;2023-03-13T08:55:52;6.70;;;5.10;;
39410;SDS011;26579;43.238;23.124;2023-03-13T08:58:18;8.20;;;5.25;;
39410;SDS011;26579;43.238;23.124;2023-03-13T09:00:44;5.20;;;3.78;;
39410;SDS011;26579;43.238;23.124;2023-03-13T09:03:10;8.07;;;4.70;;
39410;SDS011;26579;43.238;23.124;2023-03-13T09:05:38;8.15;;;5.13;;
39410;SDS011;26579;43.238;23.124;2023-03-13T09:08:04;10.32;;;6.10;;
39410;SDS011;26579;43.238;23.124;2023-03-13T09:10:33;30.45;;;5.20;;
39410;SDS011;26579;43.238;23.124;2023-03-13T09:13:00;7.22;;;5.15;;
39410;SDS011;26579;43.238;23.124;2023-03-13T09:15:26;9.13;;;5.57;;
39410;SDS011;26579;43.238;23.124;2023-03-13T09:17:52;7.30;;;4.68;;
39410;SDS011;26579;43.238;23.124;2023-03-13T09:20:18;7.72;;;5.38;;
39410;SDS011;26579;43.238;23.124;2023-03-13T09:22:44;6.70;;;4.70;;
39410;SDS011;26579;43.238;23.124;2023-03-13T09:25:10;7.70;;;4.88;;
39410;SDS011;26579;43.238;23.124;2023-03-13T09:27:37;5.90;;;4.07;;
39410;SDS011;26579;43.238;23.124;2023-03-13T09:30:02;5.43;;;3.72;;
39410;SDS011;26579;43.238;23.124;2023-03-13T09:32:28;5.68;;;4.00;;
39410;SDS011;26579;43.238;23.124;2023-03-13T09:34:54;5.35;;;3.92;;
39410;SDS011;26579;43.238;23.124;2023-03-13T09:37:20;6.63;;;4.28;;
39410;SDS011;26579;43.238;23.124;2023-03-13T09:39:47;7.35;;;4.45;;
39410;SDS011;26579;43.238;23.124;2023-03-13T09:44:43;6.70;;;4.90;;
39410;SDS011;26579;43.238;23.124;2023-03-13T09:47:21;7.55;;;5.25;;
39410;SDS011;26579;43.238;23.124;2023-03-13T09:49:54;8.25;;;3.78;;
39410;SDS011;26579;43.238;23.124;2023-03-13T09:52:29;11.18;;;5.20;;
39410;SDS011;26579;43.238;23.124;2023-03-13T10:01:02;5.72;;;3.92;;
39410;SDS011;26579;43.238;23.124;2023-03-13T10:05:48;7.97;;;6.35;;
39410;SDS011;26579;43.238;23.124;2023-03-13T10:08:18;8.25;;;5.50;;
39410;SDS011;26579;43.238;23.124;2023-03-13T10:16:42;6.88;;;4.63;;
39410;SDS011;26579;43.238;23.124;2023-03-13T10:19:14;7.75;;;5.05;;
39410;SDS011;26579;43.238;23.124;2023-03-13T10:21:52;7.78;;;4.22;;
39410;SDS011;26579;43.238;23.124;2023-03-13T10:24:32;6.55;;;4.55;;
39410;SDS011;26579;43.238;23.124;2023-03-13T10:27:07;7.03;;;4.47;;
39410;SDS011;26579;43.238;23.124;2023-03-13T10:29:33;7.78;;;5.15;;
39410;SDS011;26579;43.238;23.124;2023-03-13T10:32:00;8.68;;;4.28;;
39410;SDS011;26579;43.238;23.124;2023-03-13T10:34:28;10.18;;;4.72;;
39410;SDS011;26579;43.238;23.124;2023-03-13T10:37:13;8.93;;;4.38;;
39410;SDS011;26579;43.238;23.124;2023-03-13T10:39:41;8.23;;;4.40;;
39410;SDS011;26579;43.238;23.124;2023-03-13T10:42:10;5.75;;;4.22;;
39410;SDS011;26579;43.238;23.124;2023-03-13T10:44:45;6.25;;;4.45;;
39410;SDS011;26579;43.238;23.124;2023-03-13T10:47:14;6.28;;;4.28;;
39410;SDS011;26579;43.238;23.124;2023-03-13T10:49:48;7.55;;;5.25;;
39410;SDS011;26579;43.238;23.124;2023-03-13T10:55:02;7.75;;;4.65;;
39410;SDS011;26579;43.238;23.124;2023-03-13T10:57:33;7.10;;;4.40;;
39410;SDS011;26579;43.238;23.124;2023-03-13T11:00:03;6.70;;;4.60;;
39410;SDS011;26579;43.238;23.124;2023-03-13T11:02:47;8.30;;;5.13;;
39410;SDS011;26579;43.238;23.124;2023-03-13T11:07:56;8.15;;;4.53;;
39410;SDS011;26579;43.238;23.124;2023-03-13T11:10:25;6.82;;;4.30;;
39410;SDS011;26579;43.238;23.124;2023-03-13T11:12:56;22.70;;;6.13;;
39410;SDS011;26579;43.238;23.124;2023-03-13T11:15:24;9.65;;;4.75;;
39410;SDS011;26579;43.238;23.124;2023-03-13T11:20:54;11.55;;;3.75;;
39410;SDS011;26579;43.238;23.124;2023-03-13T11:23:29;10.13;;;4.57;;
39410;SDS011;26579;43.238;23.124;2023-03-13T11:26:18;7.60;;;3.90;;
39410;SDS011;26579;43.238;23.124;2023-03-13T11:28:59;5.85;;;3.92;;
39410;SDS011;26579;43.238;23.124;2023-03-13T11:31:41;5.60;;;4.10;;
39410;SDS011;26579;43.238;23.124;2023-03-13T11:37:04;6.80;;;3.70;;
39410;SDS011;26579;43.238;23.124;2023-03-13T11:43:06;6.13;;;3.80;;
39410;SDS011;26579;43.238;23.124;2023-03-13T11:56:31;9.80;;;6.68;;
39410;SDS011;26579;43.238;23.124;2023-03-13T12:05:00;9.45;;;4.78;;
39410;SDS011;26579;43.238;23.124;2023-03-13T12:07:31;6.25;;;4.15;;
39410;SDS011;26579;43.238;23.124;2023-03-13T12:10:01;7.47;;;3.80;;
39410;SDS011;26579;43.238;23.124;2023-03-13T12:23:25;8.35;;;4.82;;
39410;SDS011;26579;43.238;23.124;2023-03-13T12:26:20;7.25;;;3.45;;
39410;SDS011;26579;43.238;23.124;2023-03-13T12:34:39;8.23;;;5.78;;
39410;SDS011;26579;43.238;23.124;2023-03-13T12:37:22;7.72;;;4.75;;
39410;SDS011;26579;43.238;23.124;2023-03-13T12:39:59;8.18;;;4.35;;
39410;SDS011;26579;43.238;23.124;2023-03-13T12:45:20;8.73;;;4.45;;
39410;SDS011;26579;43.238;23.124;2023-03-13T13:01:42;6.45;;;3.83;;
39410;SDS011;26579;43.238;23.124;2023-03-13T13:06:56;6.82;;;3.50;;
39410;SDS011;26579;43.238;23.124;2023-03-13T13:09:34;6.05;;;3.65;;
39410;SDS011;26579;43.238;23.124;2023-03-13T13:19:47;5.38;;;3.75;;
39410;SDS011;26579;43.238;23.124;2023-03-13T13:24:57;14.25;;;5.63;;
39410;SDS011;26579;43.238;23.124;2023-03-13T13:29:56;9.18;;;3.72;;
39410;SDS011;26579;43.238;23.124;2023-03-13T13:32:27;7.18;;;4.68;;
39410;SDS011;26579;43.238;23.124;2023-03-13T13:35:25;7.97;;;5.45;;
39410;SDS011;26579;43.238;23.124;2023-03-13T13:37:50;12.27;;;7.68;;
39410;SDS011;26579;43.238;23.124;2023-03-13T13:40:22;10.40;;;6.28;;
39410;SDS011;26579;43.238;23.124;2023-03-13T13:42:58;8.52;;;6.10;;
39410;SDS011;26579;43.238;23.124;2023-03-13T13:48:15;10.05;;;5.72;;
39410;SDS011;26579;43.238;23.124;2023-03-13T14:01:45;8.70;;;5.82;;
39410;SDS011;26579;43.238;23.124;2023-03-13T14:04:18;4.07;;;3.00;;
39410;SDS011;26579;43.238;23.124;2023-03-13T14:06:52;4.45;;;2.97;;
39410;SDS011;26579;43.238;23.124;2023-03-13T14:09:28;6.25;;;3.88;;
39410;SDS011;26579;43.238;23.124;2023-03-13T14:15:13;4.60;;;3.25;;
39410;SDS011;26579;43.238;23.124;2023-03-13T14:17:43;7.47;;;3.20;;
39410;SDS011;26579;43.238;23.124;2023-03-13T14:20:18;7.82;;;3.92;;
39410;SDS011;26579;43.238;23.124;2023-03-13T14:22:49;6.05;;;3.75;;
39410;SDS011;26579;43.238;23.124;2023-03-13T14:25:15;8.18;;;5.13;;
39410;SDS011;26579;43.238;23.124;2023-03-13T14:27:42;13.82;;;6.53;;
39410;SDS011;26579;43.238;23.124;2023-03-13T14:30:08;6.35;;;3.90;;
39410;SDS011;26579;43.238;23.124;2023-03-13T14:32:35;8.60;;;4.20;;
39410;SDS011;26579;43.238;23.124;2023-03-13T14:35:05;10.70;;;4.50;;
39410;SDS011;26579;43.238;23.124;2023-03-13T14:37:34;7.97;;;4.30;;
39410;SDS011;26579;43.238;23.124;2023-03-13T14:42:49;12.77;;;5.55;;
39410;SDS011;26579;43.238;23.124;2023-03-13T14:45:27;13.70;;;7.20;;
39410;SDS011;26579;43.238;23.124;2023-03-13T14:47:59;8.55;;;4.65;;
39410;SDS011;26579;43.238;23.124;2023-03-13T14:50:27;10.52;;;4.35;;
39410;SDS011;26579;43.238;23.124;2023-03-13T14:52:59;13.48;;;5.53;;
39410;SDS011;26579;43.238;23.124;2023-03-13T14:55:29;9.93;;;4.85;;
39410;SDS011;26579;43.238;23.124;2023-03-13T14:58:00;9.95;;;6.88;;
39410;SDS011;26579;43.238;23.124;2023-03-13T15:08:10;7.57;;;4.53;;
39410;SDS011;26579;43.238;23.124;2023-03-13T15:10:40;8.43;;;4.80;;
39410;SDS011;26579;43.238;23.124;2023-03-13T15:15:47;8.00;;;4.45;;
39410;SDS011;26579;43.238;23.124;2023-03-13T15:18:16;17.83;;;8.35;;
39410;SDS011;26579;43.238;23.124;2023-03-13T15:21:27;8.10;;;4.97;;
39410;SDS011;26579;43.238;23.124;2023-03-13T15:23:36;5.88;;;2.92;;
39410;SDS011;26579;43.238;23.124;2023-03-13T15:26:02;5.57;;;2.60;;
39410;SDS011;26579;43.238;23.124;2023-03-13T15:28:28;5.25;;;2.38;;
39410;SDS011;26579;43.238;23.124;2023-03-13T15:30:54;7.07;;;4.05;;
39410;SDS011;26579;43.238;23.124;2023-03-13T15:33:21;5.25;;;3.33;;
39410;SDS011;26579;43.238;23.124;2023-03-13T15:35:48;6.38;;;2.92;;
39410;SDS011;26579;43.238;23.124;2023-03-13T15:38:15;5.30;;;3.50;;
39410;SDS011;26579;43.238;23.124;2023-03-13T15:40:43;9.48;;;3.35;;
39410;SDS011;26579;43.238;23.124;2023-03-13T15:43:09;6.13;;;3.35;;
39410;SDS011;26579;43.238;23.124;2023-03-13T15:45:36;5.75;;;2.83;;
39410;SDS011;26579;43.238;23.124;2023-03-13T15:48:20;5.38;;;3.28;;
39410;SDS011;26579;43.238;23.124;2023-03-13T15:50:51;16.25;;;8.73;;
39410;SDS011;26579;43.238;23.124;2023-03-13T15:53:22;7.03;;;3.40;;
39410;SDS011;26579;43.238;23.124;2023-03-13T15:55:53;7.03;;;3.88;;
39410;SDS011;26579;43.238;23.124;2023-03-13T15:58:20;14.40;;;8.90;;
39410;SDS011;26579;43.238;23.124;2023-03-13T16:00:46;10.20;;;5.15;;
39410;SDS011;26579;43.238;23.124;2023-03-13T16:05:42;6.28;;;4.10;;
39410;SDS011;26579;43.238;23.124;2023-03-13T16:08:15;21.50;;;6.25;;
39410;SDS011;26579;43.238;23.124;2023-03-13T16:10:42;13.60;;;5.50;;
39410;SDS011;26579;43.238;23.124;2023-03-13T16:13:08;10.48;;;4.65;;
39410;SDS011;26579;43.238;23.124;2023-03-13T16:15:35;15.45;;;7.93;;
39410;SDS011;26579;43.238;23.124;2023-03-13T16:18:02;10.02;;;5.10;;
39410;SDS011;26579;43.238;23.124;2023-03-13T16:20:28;53.00;;;20.95;;
39410;SDS011;26579;43.238;23.124;2023-03-13T16:22:55;95.53;;;40.53;;
39410;SDS011;26579;43.238;23.124;2023-03-13T16:25:22;94.85;;;45.75;;
39410;SDS011;26579;43.238;23.124;2023-03-13T16:27:48;73.00;;;36.55;;
39410;SDS011;26579;43.238;23.124;2023-03-13T16:30:22;82.53;;;41.63;;
39410;SDS011;26579;43.238;23.124;2023-03-13T16:32:51;70.78;;;37.20;;
39410;SDS011;26579;43.238;23.124;2023-03-13T16:35:17;102.10;;;51.10;;
39410;SDS011;26579;43.238;23.124;2023-03-13T16:37:43;81.90;;;43.72;;
39410;SDS011;26579;43.238;23.124;2023-03-13T16:40:19;75.28;;;37.30;;
39410;SDS011;26579;43.238;23.124;2023-03-13T16:42:48;89.00;;;42.40;;
39410;SDS011;26579;43.238;23.124;2023-03-13T16:45:14;93.38;;;49.45;;
39410;SDS011;26579;43.238;23.124;2023-03-13T16:47:41;92.53;;;46.35;;
39410;SDS011;26579;43.238;23.124;2023-03-13T16:50:13;67.35;;;38.00;;
39410;SDS011;26579;43.238;23.124;2023-03-13T16:52:43;104.22;;;57.88;;
39410;SDS011;26579;43.238;23.124;2023-03-13T16:55:08;79.18;;;44.83;;
39410;SDS011;26579;43.238;23.124;2023-03-13T16:57:34;78.43;;;43.40;;
39410;SDS011;26579;43.238;23.124;2023-03-13T17:00:00;77.38;;;41.72;;
39410;SDS011;26579;43.238;23.124;2023-03-13T17:02:26;77.68;;;40.35;;
39410;SDS011;26579;43.238;23.124;2023-03-13T17:04:53;78.82;;;44.72;;
39410;SDS011;26579;43.238;23.124;2023-03-13T17:07:19;71.57;;;39.70;;
39410;SDS011;26579;43.238;23.124;2023-03-13T17:09:47;58.47;;;33.58;;